sensor_id;sensor_type;location;lat;lon;timestamp;P1;durP1;ratioP1;P2;durP2;ratioP2
54235;SDS011;40151;43.606;1.472;2023-02-12T00:02:06;7.38;;;4.90;;
54235;SDS011;40151;43.606;1.472;2023-02-12T00:04:32;7.18;;;4.95;;
54235;SDS011;40151;43.606;1.472;2023-02-12T00:06:57;8.20;;;5.25;;
54235;SDS011;40151;43.606;1.472;2023-02-12T00:09:23;7.90;;;5.38;;
54235;SDS011;40151;43.606;1.472;2023-02-12T00:11:48;8.45;;;5.30;;
54235;SDS011;40151;43.606;1.472;2023-02-12T00:14:14;7.40;;;5.13;;
54235;SDS011;40151;43.606;1.472;2023-02-12T00:16:39;8.02;;;5.50;;
54235;SDS011;40151;43.606;1.472;2023-02-12T00:19:05;7.38;;;5.10;;
54235;SDS011;40151;43.606;1.472;2023-02-12T00:21:30;6.75;;;4.97;;
54235;SDS011;40151;43.606;1.472;2023-02-12T00:23:56;8.23;;;5.40;;
54235;SDS011;40151;43.606;1.472;2023-02-12T00:26:22;7.72;;;5.13;;
54235;SDS011;40151;43.606;1.472;2023-02-12T00:28:48;7.63;;;5.15;;
54235;SDS011;40151;43.606;1.472;2023-02-12T00:31:15;7.22;;;4.82;;
54235;SDS011;40151;43.606;1.472;2023-02-12T00:33:45;7.65;;;5.47;;
54235;SDS011;40151;43.606;1.472;2023-02-12T00:36:15;7.28;;;5.03;;
54235;SDS011;40151;43.606;1.472;2023-02-12T00:38:42;7.40;;;5.22;;
54235;SDS011;40151;43.606;1.472;2023-02-12T00:41:08;7.45;;;5.03;;
54235;SDS011;40151;43.606;1.472;2023-02-12T00:43:33;7.47;;;5.88;;
54235;SDS011;40151;43.606;1.472;2023-02-12T00:45:59;7.70;;;5.30;;
54235;SDS011;40151;43.606;1.472;2023-02-12T00:48:24;7.55;;;5.60;;
54235;SDS011;40151;43.606;1.472;2023-02-12T00:50:50;8.30;;;5.60;;
54235;SDS011;40151;43.606;1.472;2023-02-12T00:53:15;8.23;;;5.30;;
54235;SDS011;40151;43.606;1.472;2023-02-12T00:55:41;7.13;;;5.10;;
54235;SDS011;40151;43.606;1.472;2023-02-12T00:58:07;9.27;;;5.78;;
54235;SDS011;40151;43.606;1.472;2023-02-12T01:00:32;8.38;;;5.70;;
54235;SDS011;40151;43.606;1.472;2023-02-12T01:02:58;8.02;;;5.93;;
54235;SDS011;40151;43.606;1.472;2023-02-12T01:05:23;8.07;;;5.55;;
54235;SDS011;40151;43.606;1.472;2023-02-12T01:07:49;8.45;;;5.22;;
54235;SDS011;40151;43.606;1.472;2023-02-12T01:10:15;9.93;;;5.97;;
54235;SDS011;40151;43.606;1.472;2023-02-12T01:12:41;8.43;;;5.60;;
54235;SDS011;40151;43.606;1.472;2023-02-12T01:15:07;10.05;;;6.55;;
54235;SDS011;40151;43.606;1.472;2023-02-12T01:17:34;8.13;;;5.97;;
54235;SDS011;40151;43.606;1.472;2023-02-12T01:20:00;8.65;;;5.93;;
54235;SDS011;40151;43.606;1.472;2023-02-12T01:22:26;8.95;;;5.82;;
54235;SDS011;40151;43.606;1.472;2023-02-12T01:24:51;9.10;;;6.35;;
54235;SDS011;40151;43.606;1.472;2023-02-12T01:27:16;9.20;;;5.88;;
54235;SDS011;40151;43.606;1.472;2023-02-12T01:29:42;8.40;;;5.95;;
54235;SDS011;40151;43.606;1.472;2023-02-12T01:32:10;9.30;;;6.32;;
54235;SDS011;40151;43.606;1.472;2023-02-12T01:34:36;8.32;;;5.97;;
54235;SDS011;40151;43.606;1.472;2023-02-12T01:37:02;8.88;;;5.85;;
54235;SDS011;40151;43.606;1.472;2023-02-12T01:39:28;10.63;;;6.68;;
54235;SDS011;40151;43.606;1.472;2023-02-12T01:41:53;7.47;;;5.32;;
54235;SDS011;40151;43.606;1.472;2023-02-12T01:44:20;8.18;;;5.45;;
54235;SDS011;40151;43.606;1.472;2023-02-12T01:46:46;7.43;;;5.82;;
54235;SDS011;40151;43.606;1.472;2023-02-12T01:49:15;8.20;;;5.20;;
54235;SDS011;40151;43.606;1.472;2023-02-12T01:51:46;8.98;;;6.10;;
54235;SDS011;40151;43.606;1.472;2023-02-12T01:54:15;8.23;;;5.63;;
54235;SDS011;40151;43.606;1.472;2023-02-12T01:56:42;9.00;;;6.30;;
54235;SDS011;40151;43.606;1.472;2023-02-12T01:59:08;8.40;;;5.80;;
54235;SDS011;40151;43.606;1.472;2023-02-12T02:01:35;9.60;;;5.72;;
54235;SDS011;40151;43.606;1.472;2023-02-12T02:04:04;9.02;;;5.80;;
54235;SDS011;40151;43.606;1.472;2023-02-12T02:06:37;7.68;;;5.70;;
54235;SDS011;40151;43.606;1.472;2023-02-12T02:09:08;8.20;;;6.25;;
54235;SDS011;40151;43.606;1.472;2023-02-12T02:11:33;7.72;;;5.80;;
54235;SDS011;40151;43.606;1.472;2023-02-12T02:14:17;9.23;;;6.25;;
54235;SDS011;40151;43.606;1.472;2023-02-12T02:31:32;8.50;;;6.13;;
54235;SDS011;40151;43.606;1.472;2023-02-12T02:42:40;9.13;;;6.05;;
54235;SDS011;40151;43.606;1.472;2023-02-12T02:47:51;8.70;;;6.20;;
54235;SDS011;40151;43.606;1.472;2023-02-12T02:50:22;9.05;;;6.43;;
54235;SDS011;40151;43.606;1.472;2023-02-12T02:52:59;8.95;;;6.20;;
54235;SDS011;40151;43.606;1.472;2023-02-12T02:55:30;9.02;;;6.05;;
54235;SDS011;40151;43.606;1.472;2023-02-12T03:04:06;8.95;;;6.35;;
54235;SDS011;40151;43.606;1.472;2023-02-12T03:06:40;9.77;;;6.20;;
54235;SDS011;40151;43.606;1.472;2023-02-12T03:09:26;9.23;;;6.78;;
54235;SDS011;40151;43.606;1.472;2023-02-12T03:12:05;10.00;;;6.25;;
54235;SDS011;40151;43.606;1.472;2023-02-12T03:14:43;7.95;;;5.75;;
54235;SDS011;40151;43.606;1.472;2023-02-12T03:17:19;9.03;;;6.40;;
54235;SDS011;40151;43.606;1.472;2023-02-12T03:19:55;7.97;;;6.20;;
54235;SDS011;40151;43.606;1.472;2023-02-12T03:22:33;9.48;;;6.72;;
54235;SDS011;40151;43.606;1.472;2023-02-12T03:25:08;9.20;;;6.40;;
54235;SDS011;40151;43.606;1.472;2023-02-12T03:27:43;10.15;;;7.15;;
54235;SDS011;40151;43.606;1.472;2023-02-12T03:30:13;9.65;;;6.70;;
54235;SDS011;40151;43.606;1.472;2023-02-12T03:32:47;9.82;;;7.00;;
54235;SDS011;40151;43.606;1.472;2023-02-12T03:40:40;11.07;;;7.80;;
54235;SDS011;40151;43.606;1.472;2023-02-12T03:48:43;10.00;;;7.60;;
54235;SDS011;40151;43.606;1.472;2023-02-12T03:51:19;8.93;;;6.80;;
54235;SDS011;40151;43.606;1.472;2023-02-12T03:53:46;9.25;;;6.45;;
54235;SDS011;40151;43.606;1.472;2023-02-12T03:56:13;8.63;;;6.30;;
54235;SDS011;40151;43.606;1.472;2023-02-12T03:58:44;10.40;;;7.32;;
54235;SDS011;40151;43.606;1.472;2023-02-12T04:01:11;8.40;;;6.35;;
54235;SDS011;40151;43.606;1.472;2023-02-12T04:03:37;7.97;;;6.05;;
54235;SDS011;40151;43.606;1.472;2023-02-12T04:06:03;9.05;;;6.35;;
54235;SDS011;40151;43.606;1.472;2023-02-12T04:08:29;9.07;;;6.45;;
54235;SDS011;40151;43.606;1.472;2023-02-12T04:13:32;8.40;;;6.10;;
54235;SDS011;40151;43.606;1.472;2023-02-12T04:18:42;7.60;;;5.50;;
54235;SDS011;40151;43.606;1.472;2023-02-12T04:21:11;7.97;;;5.75;;
54235;SDS011;40151;43.606;1.472;2023-02-12T04:24:18;9.07;;;5.90;;
54235;SDS011;40151;43.606;1.472;2023-02-12T04:32:14;7.60;;;5.25;;
54235;SDS011;40151;43.606;1.472;2023-02-12T04:34:57;8.07;;;5.53;;
54235;SDS011;40151;43.606;1.472;2023-02-12T04:37:45;8.93;;;5.82;;
54235;SDS011;40151;43.606;1.472;2023-02-12T04:40:18;8.32;;;5.63;;
54235;SDS011;40151;43.606;1.472;2023-02-12T04:42:46;10.18;;;6.28;;
54235;SDS011;40151;43.606;1.472;2023-02-12T04:45:15;8.65;;;5.88;;
54235;SDS011;40151;43.606;1.472;2023-02-12T04:47:48;8.63;;;6.47;;
54235;SDS011;40151;43.606;1.472;2023-02-12T04:50:13;9.13;;;6.28;;
54235;SDS011;40151;43.606;1.472;2023-02-12T04:52:39;8.15;;;5.93;;
54235;SDS011;40151;43.606;1.472;2023-02-12T04:55:04;8.27;;;6.35;;
54235;SDS011;40151;43.606;1.472;2023-02-12T04:57:30;8.88;;;6.30;;
54235;SDS011;40151;43.606;1.472;2023-02-12T04:59:55;9.20;;;5.95;;
54235;SDS011;40151;43.606;1.472;2023-02-12T05:02:21;8.27;;;6.20;;
54235;SDS011;40151;43.606;1.472;2023-02-12T05:04:47;9.43;;;6.65;;
54235;SDS011;40151;43.606;1.472;2023-02-12T05:07:14;9.10;;;6.55;;
54235;SDS011;40151;43.606;1.472;2023-02-12T05:09:39;9.95;;;6.47;;
54235;SDS011;40151;43.606;1.472;2023-02-12T05:12:05;7.60;;;5.32;;
54235;SDS011;40151;43.606;1.472;2023-02-12T05:14:30;9.45;;;6.38;;
54235;SDS011;40151;43.606;1.472;2023-02-12T05:16:56;9.57;;;6.75;;
54235;SDS011;40151;43.606;1.472;2023-02-12T05:19:21;10.57;;;7.03;;
54235;SDS011;40151;43.606;1.472;2023-02-12T05:21:48;9.25;;;6.47;;
54235;SDS011;40151;43.606;1.472;2023-02-12T05:24:15;8.75;;;6.53;;
54235;SDS011;40151;43.606;1.472;2023-02-12T05:26:40;9.35;;;6.22;;
54235;SDS011;40151;43.606;1.472;2023-02-12T05:29:05;8.77;;;6.82;;
54235;SDS011;40151;43.606;1.472;2023-02-12T05:31:31;8.75;;;6.40;;
54235;SDS011;40151;43.606;1.472;2023-02-12T05:33:57;9.23;;;6.38;;
54235;SDS011;40151;43.606;1.472;2023-02-12T05:36:22;9.00;;;6.60;;
54235;SDS011;40151;43.606;1.472;2023-02-12T05:38:48;9.18;;;6.97;;
54235;SDS011;40151;43.606;1.472;2023-02-12T05:41:16;8.57;;;6.38;;
54235;SDS011;40151;43.606;1.472;2023-02-12T05:43:43;9.55;;;6.90;;
54235;SDS011;40151;43.606;1.472;2023-02-12T05:46:09;11.13;;;7.13;;
54235;SDS011;40151;43.606;1.472;2023-02-12T05:48:35;9.68;;;6.97;;
54235;SDS011;40151;43.606;1.472;2023-02-12T05:51:12;9.15;;;6.93;;
54235;SDS011;40151;43.606;1.472;2023-02-12T05:53:40;9.57;;;6.55;;
54235;SDS011;40151;43.606;1.472;2023-02-12T05:58:34;9.50;;;6.28;;
54235;SDS011;40151;43.606;1.472;2023-02-12T06:01:00;9.02;;;6.28;;
54235;SDS011;40151;43.606;1.472;2023-02-12T06:03:25;9.43;;;6.78;;
54235;SDS011;40151;43.606;1.472;2023-02-12T06:05:51;10.05;;;6.45;;
54235;SDS011;40151;43.606;1.472;2023-02-12T06:08:16;9.15;;;6.53;;
54235;SDS011;40151;43.606;1.472;2023-02-12T06:10:42;8.75;;;6.07;;
54235;SDS011;40151;43.606;1.472;2023-02-12T06:13:07;10.45;;;6.90;;
54235;SDS011;40151;43.606;1.472;2023-02-12T06:15:35;9.88;;;6.50;;
54235;SDS011;40151;43.606;1.472;2023-02-12T06:18:00;8.63;;;6.32;;
54235;SDS011;40151;43.606;1.472;2023-02-12T06:20:26;8.32;;;6.30;;
54235;SDS011;40151;43.606;1.472;2023-02-12T06:22:51;9.88;;;6.68;;
54235;SDS011;40151;43.606;1.472;2023-02-12T06:25:16;8.63;;;6.30;;
54235;SDS011;40151;43.606;1.472;2023-02-12T06:27:42;7.93;;;6.32;;
54235;SDS011;40151;43.606;1.472;2023-02-12T06:30:07;9.27;;;6.93;;
54235;SDS011;40151;43.606;1.472;2023-02-12T06:32:33;7.00;;;5.45;;
54235;SDS011;40151;43.606;1.472;2023-02-12T06:34:59;9.23;;;6.38;;
54235;SDS011;40151;43.606;1.472;2023-02-12T06:37:24;8.55;;;5.90;;
54235;SDS011;40151;43.606;1.472;2023-02-12T06:39:50;8.68;;;6.22;;
54235;SDS011;40151;43.606;1.472;2023-02-12T06:42:15;9.43;;;6.10;;
54235;SDS011;40151;43.606;1.472;2023-02-12T06:44:40;7.78;;;6.13;;
54235;SDS011;40151;43.606;1.472;2023-02-12T06:47:06;8.75;;;6.35;;
54235;SDS011;40151;43.606;1.472;2023-02-12T06:49:31;8.45;;;5.93;;
54235;SDS011;40151;43.606;1.472;2023-02-12T06:51:57;8.88;;;6.25;;
54235;SDS011;40151;43.606;1.472;2023-02-12T06:54:22;8.38;;;5.88;;
54235;SDS011;40151;43.606;1.472;2023-02-12T06:56:47;8.23;;;5.40;;
54235;SDS011;40151;43.606;1.472;2023-02-12T06:59:14;7.72;;;5.85;;
54235;SDS011;40151;43.606;1.472;2023-02-12T07:01:40;7.47;;;5.78;;
54235;SDS011;40151;43.606;1.472;2023-02-12T07:04:06;7.88;;;5.88;;
54235;SDS011;40151;43.606;1.472;2023-02-12T07:06:33;7.45;;;5.57;;
54235;SDS011;40151;43.606;1.472;2023-02-12T07:08:59;8.15;;;5.78;;
54235;SDS011;40151;43.606;1.472;2023-02-12T07:11:28;8.27;;;5.90;;
54235;SDS011;40151;43.606;1.472;2023-02-12T07:13:56;8.60;;;6.25;;
54235;SDS011;40151;43.606;1.472;2023-02-12T07:16:22;8.63;;;6.00;;
54235;SDS011;40151;43.606;1.472;2023-02-12T07:18:48;8.88;;;6.10;;
54235;SDS011;40151;43.606;1.472;2023-02-12T07:21:14;8.20;;;5.80;;
54235;SDS011;40151;43.606;1.472;2023-02-12T07:23:44;7.13;;;5.70;;
54235;SDS011;40151;43.606;1.472;2023-02-12T07:26:11;7.18;;;5.43;;
54235;SDS011;40151;43.606;1.472;2023-02-12T07:28:37;9.93;;;6.55;;
54235;SDS011;40151;43.606;1.472;2023-02-12T07:31:07;8.05;;;6.00;;
54235;SDS011;40151;43.606;1.472;2023-02-12T07:33:33;8.75;;;6.28;;
54235;SDS011;40151;43.606;1.472;2023-02-12T07:36:02;7.63;;;5.80;;
54235;SDS011;40151;43.606;1.472;2023-02-12T07:38:29;9.32;;;6.38;;
54235;SDS011;40151;43.606;1.472;2023-02-12T07:40:55;7.57;;;5.90;;
54235;SDS011;40151;43.606;1.472;2023-02-12T07:43:30;8.18;;;6.40;;
54235;SDS011;40151;43.606;1.472;2023-02-12T07:45:56;8.88;;;6.38;;
54235;SDS011;40151;43.606;1.472;2023-02-12T07:48:30;8.65;;;6.35;;
54235;SDS011;40151;43.606;1.472;2023-02-12T07:50:55;9.55;;;7.00;;
54235;SDS011;40151;43.606;1.472;2023-02-12T07:53:21;8.55;;;6.45;;
54235;SDS011;40151;43.606;1.472;2023-02-12T07:55:46;8.50;;;6.00;;
54235;SDS011;40151;43.606;1.472;2023-02-12T07:58:11;8.80;;;6.32;;
54235;SDS011;40151;43.606;1.472;2023-02-12T08:00:37;8.90;;;6.20;;
54235;SDS011;40151;43.606;1.472;2023-02-12T08:03:02;8.98;;;6.20;;
54235;SDS011;40151;43.606;1.472;2023-02-12T08:05:28;8.13;;;6.32;;
54235;SDS011;40151;43.606;1.472;2023-02-12T08:07:53;8.15;;;5.90;;
54235;SDS011;40151;43.606;1.472;2023-02-12T08:10:19;8.32;;;6.10;;
54235;SDS011;40151;43.606;1.472;2023-02-12T08:12:46;8.82;;;6.13;;
54235;SDS011;40151;43.606;1.472;2023-02-12T08:15:11;8.77;;;6.55;;
54235;SDS011;40151;43.606;1.472;2023-02-12T08:17:37;10.27;;;6.78;;
54235;SDS011;40151;43.606;1.472;2023-02-12T08:20:02;8.45;;;6.22;;
54235;SDS011;40151;43.606;1.472;2023-02-12T08:22:28;8.65;;;6.50;;
54235;SDS011;40151;43.606;1.472;2023-02-12T08:24:53;8.25;;;6.70;;
54235;SDS011;40151;43.606;1.472;2023-02-12T08:27:18;9.70;;;6.20;;
54235;SDS011;40151;43.606;1.472;2023-02-12T08:29:44;10.13;;;6.50;;
54235;SDS011;40151;43.606;1.472;2023-02-12T08:32:09;9.63;;;6.70;;
54235;SDS011;40151;43.606;1.472;2023-02-12T08:34:37;9.63;;;7.10;;
54235;SDS011;40151;43.606;1.472;2023-02-12T08:37:03;9.25;;;6.80;;
54235;SDS011;40151;43.606;1.472;2023-02-12T08:39:29;8.88;;;6.68;;
54235;SDS011;40151;43.606;1.472;2023-02-12T08:41:58;10.10;;;7.45;;
54235;SDS011;40151;43.606;1.472;2023-02-12T08:44:25;8.98;;;6.68;;
54235;SDS011;40151;43.606;1.472;2023-02-12T08:46:51;10.38;;;6.85;;
54235;SDS011;40151;43.606;1.472;2023-02-12T08:49:21;8.15;;;6.78;;
54235;SDS011;40151;43.606;1.472;2023-02-12T08:51:49;9.02;;;6.70;;
54235;SDS011;40151;43.606;1.472;2023-02-12T08:54:17;9.25;;;6.93;;
54235;SDS011;40151;43.606;1.472;2023-02-12T08:56:45;9.50;;;6.53;;
54235;SDS011;40151;43.606;1.472;2023-02-12T08:59:11;10.32;;;7.18;;
54235;SDS011;40151;43.606;1.472;2023-02-12T09:01:38;9.88;;;6.53;;
54235;SDS011;40151;43.606;1.472;2023-02-12T09:04:14;9.07;;;6.95;;
54235;SDS011;40151;43.606;1.472;2023-02-12T09:06:42;8.75;;;6.80;;
54235;SDS011;40151;43.606;1.472;2023-02-12T09:09:08;8.95;;;6.70;;
54235;SDS011;40151;43.606;1.472;2023-02-12T09:11:34;8.77;;;6.80;;
54235;SDS011;40151;43.606;1.472;2023-02-12T09:14:00;9.60;;;7.50;;
54235;SDS011;40151;43.606;1.472;2023-02-12T09:16:28;9.43;;;7.20;;
54235;SDS011;40151;43.606;1.472;2023-02-12T09:18:56;10.57;;;7.28;;
54235;SDS011;40151;43.606;1.472;2023-02-12T09:21:22;9.02;;;6.70;;
54235;SDS011;40151;43.606;1.472;2023-02-12T09:23:48;9.73;;;7.13;;
54235;SDS011;40151;43.606;1.472;2023-02-12T09:26:15;11.23;;;7.43;;
54235;SDS011;40151;43.606;1.472;2023-02-12T09:28:44;8.48;;;6.70;;
54235;SDS011;40151;43.606;1.472;2023-02-12T09:31:12;10.13;;;7.25;;
54235;SDS011;40151;43.606;1.472;2023-02-12T09:33:41;9.57;;;7.28;;
54235;SDS011;40151;43.606;1.472;2023-02-12T09:36:09;8.60;;;6.75;;
54235;SDS011;40151;43.606;1.472;2023-02-12T09:38:36;10.05;;;7.10;;
54235;SDS011;40151;43.606;1.472;2023-02-12T09:48:56;12.07;;;7.85;;
54235;SDS011;40151;43.606;1.472;2023-02-12T09:51:31;10.32;;;7.75;;
54235;SDS011;40151;43.606;1.472;2023-02-12T09:54:10;12.45;;;8.57;;
54235;SDS011;40151;43.606;1.472;2023-02-12T09:56:38;12.88;;;8.07;;
54235;SDS011;40151;43.606;1.472;2023-02-12T09:59:07;10.93;;;8.00;;
54235;SDS011;40151;43.606;1.472;2023-02-12T10:01:33;13.93;;;8.95;;
54235;SDS011;40151;43.606;1.472;2023-02-12T10:03:59;14.73;;;8.75;;
54235;SDS011;40151;43.606;1.472;2023-02-12T10:06:27;12.98;;;8.48;;
54235;SDS011;40151;43.606;1.472;2023-02-12T10:11:53;15.73;;;9.50;;
54235;SDS011;40151;43.606;1.472;2023-02-12T10:17:12;15.23;;;10.23;;
54235;SDS011;40151;43.606;1.472;2023-02-12T10:22:53;19.10;;;11.50;;
54235;SDS011;40151;43.606;1.472;2023-02-12T10:28:27;17.02;;;11.30;;
54235;SDS011;40151;43.606;1.472;2023-02-12T10:31:30;17.35;;;10.80;;
54235;SDS011;40151;43.606;1.472;2023-02-12T10:33:53;18.33;;;10.77;;
54235;SDS011;40151;43.606;1.472;2023-02-12T10:41:45;19.20;;;12.38;;
54235;SDS011;40151;43.606;1.472;2023-02-12T10:44:11;18.52;;;11.27;;
54235;SDS011;40151;43.606;1.472;2023-02-12T10:46:36;18.10;;;10.52;;
54235;SDS011;40151;43.606;1.472;2023-02-12T10:49:02;19.77;;;11.77;;
54235;SDS011;40151;43.606;1.472;2023-02-12T10:51:46;15.73;;;10.80;;
54235;SDS011;40151;43.606;1.472;2023-02-12T10:57:06;17.40;;;11.65;;
54235;SDS011;40151;43.606;1.472;2023-02-12T10:59:36;18.63;;;11.77;;
54235;SDS011;40151;43.606;1.472;2023-02-12T11:02:02;17.20;;;11.27;;
54235;SDS011;40151;43.606;1.472;2023-02-12T11:04:31;18.90;;;11.38;;
54235;SDS011;40151;43.606;1.472;2023-02-12T11:07:01;17.52;;;11.43;;
54235;SDS011;40151;43.606;1.472;2023-02-12T11:09:30;14.98;;;9.98;;
54235;SDS011;40151;43.606;1.472;2023-02-12T11:12:01;19.42;;;11.80;;
54235;SDS011;40151;43.606;1.472;2023-02-12T11:14:27;14.85;;;9.82;;
54235;SDS011;40151;43.606;1.472;2023-02-12T11:16:56;16.83;;;10.45;;
54235;SDS011;40151;43.606;1.472;2023-02-12T11:19:29;15.52;;;10.20;;
54235;SDS011;40151;43.606;1.472;2023-02-12T11:24:52;15.85;;;10.82;;
54235;SDS011;40151;43.606;1.472;2023-02-12T11:27:25;16.17;;;10.80;;
54235;SDS011;40151;43.606;1.472;2023-02-12T11:30:12;20.13;;;10.90;;
54235;SDS011;40151;43.606;1.472;2023-02-12T11:32:43;16.48;;;11.38;;
54235;SDS011;40151;43.606;1.472;2023-02-12T11:35:13;17.23;;;10.25;;
54235;SDS011;40151;43.606;1.472;2023-02-12T11:37:48;16.60;;;10.73;;
54235;SDS011;40151;43.606;1.472;2023-02-12T11:40:16;18.40;;;10.88;;
54235;SDS011;40151;43.606;1.472;2023-02-12T11:42:51;17.08;;;11.60;;
54235;SDS011;40151;43.606;1.472;2023-02-12T11:45:25;16.95;;;10.18;;
54235;SDS011;40151;43.606;1.472;2023-02-12T11:47:57;18.37;;;10.83;;
54235;SDS011;40151;43.606;1.472;2023-02-12T11:53:03;16.65;;;11.15;;
54235;SDS011;40151;43.606;1.472;2023-02-12T11:55:34;16.73;;;10.23;;
54235;SDS011;40151;43.606;1.472;2023-02-12T12:00:37;15.82;;;9.95;;
54235;SDS011;40151;43.606;1.472;2023-02-12T12:06:24;13.88;;;9.55;;
54235;SDS011;40151;43.606;1.472;2023-02-12T12:08:59;15.82;;;9.82;;
54235;SDS011;40151;43.606;1.472;2023-02-12T12:19:36;15.93;;;10.30;;
54235;SDS011;40151;43.606;1.472;2023-02-12T12:22:23;14.52;;;9.40;;
54235;SDS011;40151;43.606;1.472;2023-02-12T12:25:18;14.20;;;10.18;;
54235;SDS011;40151;43.606;1.472;2023-02-12T12:33:05;15.00;;;9.88;;
54235;SDS011;40151;43.606;1.472;2023-02-12T12:35:42;13.05;;;8.88;;
54235;SDS011;40151;43.606;1.472;2023-02-12T12:41:02;15.25;;;9.85;;
54235;SDS011;40151;43.606;1.472;2023-02-12T12:44:40;15.55;;;10.43;;
54235;SDS011;40151;43.606;1.472;2023-02-12T12:46:42;15.00;;;8.98;;
54235;SDS011;40151;43.606;1.472;2023-02-12T13:03:00;14.57;;;8.50;;
54235;SDS011;40151;43.606;1.472;2023-02-12T13:05:49;12.95;;;9.00;;
54235;SDS011;40151;43.606;1.472;2023-02-12T13:20:26;14.15;;;8.45;;
54235;SDS011;40151;43.606;1.472;2023-02-12T13:23:03;10.20;;;7.72;;
54235;SDS011;40151;43.606;1.472;2023-02-12T13:25:51;12.93;;;8.23;;
54235;SDS011;40151;43.606;1.472;2023-02-12T13:28:23;10.77;;;7.88;;
54235;SDS011;40151;43.606;1.472;2023-02-12T13:31:09;14.18;;;8.20;;
54235;SDS011;40151;43.606;1.472;2023-02-12T13:33:42;11.75;;;7.72;;
54235;SDS011;40151;43.606;1.472;2023-02-12T13:36:11;13.13;;;7.75;;
54235;SDS011;40151;43.606;1.472;2023-02-12T13:39:01;11.82;;;7.47;;
54235;SDS011;40151;43.606;1.472;2023-02-12T13:41:31;11.48;;;7.90;;
54235;SDS011;40151;43.606;1.472;2023-02-12T13:44:44;12.05;;;7.47;;
54235;SDS011;40151;43.606;1.472;2023-02-12T13:49:38;11.27;;;7.43;;
54235;SDS011;40151;43.606;1.472;2023-02-12T13:55:22;10.38;;;7.65;;
54235;SDS011;40151;43.606;1.472;2023-02-12T14:03:27;10.40;;;6.85;;
54235;SDS011;40151;43.606;1.472;2023-02-12T14:08:41;10.07;;;6.72;;
54235;SDS011;40151;43.606;1.472;2023-02-12T14:11:10;10.30;;;6.88;;
54235;SDS011;40151;43.606;1.472;2023-02-12T14:13:55;10.88;;;7.43;;
54235;SDS011;40151;43.606;1.472;2023-02-12T14:18:52;10.32;;;6.40;;
54235;SDS011;40151;43.606;1.472;2023-02-12T14:21:56;10.40;;;7.40;;
54235;SDS011;40151;43.606;1.472;2023-02-12T14:27:03;9.20;;;6.72;;
54235;SDS011;40151;43.606;1.472;2023-02-12T14:29:30;10.30;;;7.35;;
54235;SDS011;40151;43.606;1.472;2023-02-12T14:31:56;10.32;;;7.38;;
54235;SDS011;40151;43.606;1.472;2023-02-12T14:36:47;9.82;;;7.05;;
54235;SDS011;40151;43.606;1.472;2023-02-12T14:39:33;10.13;;;7.05;;
54235;SDS011;40151;43.606;1.472;2023-02-12T14:46:56;8.45;;;6.03;;
54235;SDS011;40151;43.606;1.472;2023-02-12T14:49:27;9.18;;;6.55;;
54235;SDS011;40151;43.606;1.472;2023-02-12T14:54:31;8.73;;;5.68;;
54235;SDS011;40151;43.606;1.472;2023-02-12T14:57:00;9.18;;;6.57;;
54235;SDS011;40151;43.606;1.472;2023-02-12T14:59:33;9.65;;;6.40;;
54235;SDS011;40151;43.606;1.472;2023-02-12T15:02:04;9.27;;;6.40;;
54235;SDS011;40151;43.606;1.472;2023-02-12T15:04:33;8.20;;;6.25;;
54235;SDS011;40151;43.606;1.472;2023-02-12T15:07:04;8.88;;;6.25;;
54235;SDS011;40151;43.606;1.472;2023-02-12T15:12:31;8.15;;;5.90;;
54235;SDS011;40151;43.606;1.472;2023-02-12T15:17:58;9.55;;;6.65;;
54235;SDS011;40151;43.606;1.472;2023-02-12T15:20:37;8.43;;;6.20;;
54235;SDS011;40151;43.606;1.472;2023-02-12T15:23:39;9.75;;;6.60;;
54235;SDS011;40151;43.606;1.472;2023-02-12T15:26:19;8.05;;;5.97;;
54235;SDS011;40151;43.606;1.472;2023-02-12T15:28:48;8.77;;;5.93;;
54235;SDS011;40151;43.606;1.472;2023-02-12T15:31:20;9.32;;;6.45;;
54235;SDS011;40151;43.606;1.472;2023-02-12T15:33:50;10.23;;;7.07;;
54235;SDS011;40151;43.606;1.472;2023-02-12T15:36:21;8.07;;;5.63;;
54235;SDS011;40151;43.606;1.472;2023-02-12T15:39:07;9.32;;;6.05;;
54235;SDS011;40151;43.606;1.472;2023-02-12T15:41:37;7.93;;;5.63;;
54235;SDS011;40151;43.606;1.472;2023-02-12T15:46:56;7.28;;;5.53;;
54235;SDS011;40151;43.606;1.472;2023-02-12T15:49:48;9.27;;;6.28;;
54235;SDS011;40151;43.606;1.472;2023-02-12T15:52:22;8.15;;;6.43;;
54235;SDS011;40151;43.606;1.472;2023-02-12T15:54:58;7.63;;;6.03;;
54235;SDS011;40151;43.606;1.472;2023-02-12T15:57:24;8.65;;;5.88;;
54235;SDS011;40151;43.606;1.472;2023-02-12T15:59:51;8.35;;;6.50;;
54235;SDS011;40151;43.606;1.472;2023-02-12T16:02:28;7.03;;;5.70;;
54235;SDS011;40151;43.606;1.472;2023-02-12T16:04:57;8.10;;;5.93;;
54235;SDS011;40151;43.606;1.472;2023-02-12T16:07:24;8.07;;;6.05;;
54235;SDS011;40151;43.606;1.472;2023-02-12T16:09:52;8.77;;;6.25;;
54235;SDS011;40151;43.606;1.472;2023-02-12T16:12:19;8.55;;;6.22;;
54235;SDS011;40151;43.606;1.472;2023-02-12T16:14:48;8.35;;;5.97;;
54235;SDS011;40151;43.606;1.472;2023-02-12T16:22:19;8.85;;;6.38;;
54235;SDS011;40151;43.606;1.472;2023-02-12T16:24:50;8.43;;;6.32;;
54235;SDS011;40151;43.606;1.472;2023-02-12T16:27:22;7.40;;;5.65;;
54235;SDS011;40151;43.606;1.472;2023-02-12T16:29:54;9.43;;;6.38;;
54235;SDS011;40151;43.606;1.472;2023-02-12T16:32:33;7.78;;;5.75;;
54235;SDS011;40151;43.606;1.472;2023-02-12T16:48:05;8.93;;;6.53;;
54235;SDS011;40151;43.606;1.472;2023-02-12T16:50:34;9.38;;;6.63;;
54235;SDS011;40151;43.606;1.472;2023-02-12T16:53:07;9.20;;;7.30;;
54235;SDS011;40151;43.606;1.472;2023-02-12T16:55:47;10.65;;;7.95;;
54235;SDS011;40151;43.606;1.472;2023-02-12T16:58:13;8.85;;;6.70;;
54235;SDS011;40151;43.606;1.472;2023-02-12T17:00:38;9.65;;;7.43;;
54235;SDS011;40151;43.606;1.472;2023-02-12T17:03:03;9.00;;;7.57;;
54235;SDS011;40151;43.606;1.472;2023-02-12T17:05:29;9.20;;;7.28;;
54235;SDS011;40151;43.606;1.472;2023-02-12T17:07:54;10.63;;;8.07;;
54235;SDS011;40151;43.606;1.472;2023-02-12T17:10:20;8.75;;;6.82;;
54235;SDS011;40151;43.606;1.472;2023-02-12T17:12:46;11.38;;;8.07;;
54235;SDS011;40151;43.606;1.472;2023-02-12T17:15:16;10.85;;;7.72;;
54235;SDS011;40151;43.606;1.472;2023-02-12T17:17:54;10.35;;;7.78;;
54235;SDS011;40151;43.606;1.472;2023-02-12T17:20:19;11.45;;;8.27;;
54235;SDS011;40151;43.606;1.472;2023-02-12T17:22:49;10.27;;;7.72;;
54235;SDS011;40151;43.606;1.472;2023-02-12T17:25:17;10.48;;;8.10;;
54235;SDS011;40151;43.606;1.472;2023-02-12T17:27:42;11.20;;;8.65;;
54235;SDS011;40151;43.606;1.472;2023-02-12T17:30:09;12.63;;;9.07;;
54235;SDS011;40151;43.606;1.472;2023-02-12T17:32:42;10.10;;;7.70;;
54235;SDS011;40151;43.606;1.472;2023-02-12T17:35:07;12.02;;;8.65;;
54235;SDS011;40151;43.606;1.472;2023-02-12T17:37:33;10.43;;;8.27;;
54235;SDS011;40151;43.606;1.472;2023-02-12T17:39:58;11.45;;;8.48;;
54235;SDS011;40151;43.606;1.472;2023-02-12T17:42:25;11.18;;;8.57;;
54235;SDS011;40151;43.606;1.472;2023-02-12T17:44:51;12.55;;;9.13;;
54235;SDS011;40151;43.606;1.472;2023-02-12T17:47:16;12.68;;;9.20;;
54235;SDS011;40151;43.606;1.472;2023-02-12T17:49:42;12.43;;;9.50;;
54235;SDS011;40151;43.606;1.472;2023-02-12T17:52:08;13.02;;;9.02;;
54235;SDS011;40151;43.606;1.472;2023-02-12T17:54:33;12.90;;;9.43;;
54235;SDS011;40151;43.606;1.472;2023-02-12T17:56:58;14.35;;;10.23;;
54235;SDS011;40151;43.606;1.472;2023-02-12T17:59:24;13.90;;;10.50;;
54235;SDS011;40151;43.606;1.472;2023-02-12T18:01:49;13.05;;;9.68;;
54235;SDS011;40151;43.606;1.472;2023-02-12T18:04:15;13.23;;;10.23;;
54235;SDS011;40151;43.606;1.472;2023-02-12T18:06:40;14.90;;;10.75;;
54235;SDS011;40151;43.606;1.472;2023-02-12T18:09:06;13.18;;;10.40;;